Time;durP1;ratioP1;P1;durP2;ratioP2;P2;SDS_P1;SDS_P2;PMS_P1;PMS_P2;Temp;Humidity;BMP_temperature;BMP_pressure;BME280_temperature;BME280_humidity;BME280_pressure;Samples;Min_cycle;Max_cycle;Signal;HPM_P1;HPM_P2
2022/10/07 00:01:03;;;;;;;8.57;3.90;;;;;;;10.59;56.07;102193.28;5101495;28;20510;-32
2022/10/07 00:03:29;;;;;;;7.85;3.92;;;;;;;10.56;56.29;102186.19;5099250;28;20023;-31
2022/10/07 00:06:15;;;;;;;6.10;3.55;;;;;;;10.51;56.39;102193.16;5097543;28;20020;-31
2022/10/07 00:08:45;;;;;;;5.13;3.30;;;;;;;10.48;56.39;102188.75;5104075;28;20031;-31
2022/10/07 00:11:13;;;;;;;6.05;3.40;;;;;;;10.43;56.37;102197.41;5103546;28;20064;-31
2022/10/07 00:13:41;;;;;;;7.38;3.85;;;;;;;10.43;56.44;102193.00;5087306;28;20034;-32
2022/10/07 00:16:09;;;;;;;5.38;3.10;;;;;;;10.38;56.44;102190.28;5084527;28;20026;-32
2022/10/07 00:18:36;;;;;;;6.70;3.45;;;;;;;10.34;56.35;102191.09;5106399;28;20032;-30
2022/10/07 00:21:03;;;;;;;5.28;3.08;;;;;;;10.32;56.53;102186.66;5107422;28;20020;-31
2022/10/07 00:23:29;;;;;;;5.60;3.50;;;;;;;10.31;56.24;102188.44;5080238;28;20035;-31
2022/10/07 00:25:58;;;;;;;5.93;3.92;;;;;;;10.28;56.49;102191.00;5098474;28;20019;-31
2022/10/07 00:28:24;;;;;;;4.78;3.13;;;;;;;10.24;56.43;102183.91;5097336;28;20123;-31
2022/10/07 00:30:59;;;;;;;5.18;3.28;;;;;;;10.19;56.51;102177.66;5105001;28;20115;-31
2022/10/07 00:33:24;;;;;;;6.90;3.63;;;;;;;10.16;56.62;102172.31;5103281;28;20024;-31
2022/10/07 00:35:50;;;;;;;6.00;3.42;;;;;;;10.15;56.57;102176.72;5098963;28;20050;-31
2022/10/07 00:38:15;;;;;;;5.57;3.50;;;;;;;10.12;56.53;102164.41;5080034;28;20465;-31
2022/10/07 00:40:40;;;;;;;6.25;3.58;;;;;;;10.08;56.82;102166.94;5096850;28;20063;-31
2022/10/07 00:43:25;;;;;;;6.30;3.30;;;;;;;10.05;56.60;102169.53;5101249;28;20024;-31
2022/10/07 00:45:51;;;;;;;5.72;3.55;;;;;;;9.98;56.72;102172.03;5083511;28;20390;-31
2022/10/07 00:48:21;;;;;;;6.20;3.63;;;;;;;9.99;57.19;102159.75;5098239;28;20039;-32
2022/10/07 00:50:48;;;;;;;6.25;3.88;;;;;;;9.96;56.80;102157.97;5102945;28;20019;-31
2022/10/07 00:53:14;;;;;;;7.75;3.72;;;;;;;9.95;56.64;102158.84;5102809;28;20046;-30
2022/10/07 00:55:41;;;;;;;5.82;2.95;;;;;;;9.94;56.64;102161.44;5101552;28;20032;-31
2022/10/07 00:58:08;;;;;;;5.63;3.42;;;;;;;9.90;56.78;102152.56;5097939;28;20023;-30
2022/10/07 01:00:34;;;;;;;5.85;3.53;;;;;;;9.86;56.74;102154.28;5100899;28;20393;-31
2022/10/07 01:03:00;;;;;;;6.53;3.25;;;;;;;9.83;56.74;102148.06;5105986;28;20035;-30
2022/10/07 01:05:26;;;;;;;6.28;3.70;;;;;;;9.82;56.87;102144.56;5102026;28;20035;-31
2022/10/07 01:07:51;;;;;;;6.40;3.60;;;;;;;9.80;56.67;102135.72;5103628;28;20093;-31
2022/10/07 01:10:18;;;;;;;8.18;3.50;;;;;;;9.77;56.89;102135.66;5077908;28;20032;-32
2022/10/07 01:12:47;;;;;;;6.05;3.35;;;;;;;9.73;56.88;102131.19;5077853;28;20497;-31
2022/10/07 01:15:37;;;;;;;6.22;3.38;;;;;;;9.70;56.84;102123.25;5094567;28;20019;-31
2022/10/07 01:18:14;;;;;;;5.70;3.35;;;;;;;9.68;56.72;102124.97;5081881;28;20024;-31
2022/10/07 01:20:46;;;;;;;7.05;3.30;;;;;;;9.66;56.86;102124.03;5098329;28;20027;-32
2022/10/07 01:23:33;;;;;;;5.22;3.53;;;;;;;9.62;56.78;102121.38;5099325;28;20062;-31
2022/10/07 01:26:08;;;;;;;6.18;3.67;;;;;;;9.56;57.11;102112.44;5099690;28;20375;-32
2022/10/07 01:28:40;;;;;;;5.97;3.95;;;;;;;9.51;57.19;102117.66;5075823;28;20024;-30
2022/10/07 01:31:08;;;;;;;5.32;3.55;;;;;;;9.49;57.03;102108.81;5084909;28;20403;-31
2022/10/07 01:33:35;;;;;;;5.50;3.45;;;;;;;9.48;57.05;102102.66;5102379;28;20524;-29
2022/10/07 01:36:10;;;;;;;6.35;3.67;;;;;;;9.46;56.94;102112.28;5082643;28;20479;-31
2022/10/07 01:38:38;;;;;;;6.03;3.67;;;;;;;9.43;56.94;102103.44;5086410;28;20028;-31
2022/10/07 01:41:08;;;;;;;5.13;3.33;;;;;;;9.41;57.14;102094.63;5086424;28;20027;-32
2022/10/07 01:43:36;;;;;;;4.45;3.20;;;;;;;9.36;57.08;102082.25;5091602;28;20119;-30
2022/10/07 01:46:02;;;;;;;6.28;3.58;;;;;;;9.34;57.04;102097.13;5080157;28;20069;-31
2022/10/07 01:48:28;;;;;;;5.20;3.42;;;;;;;9.32;57.25;102095.34;5105818;28;20015;-32
2022/10/07 01:50:54;;;;;;;5.40;3.10;;;;;;;9.30;57.15;102087.41;5103214;28;20733;-32
2022/10/07 01:53:38;;;;;;;5.88;3.40;;;;;;;9.27;57.19;102089.97;5081766;28;20028;-32
2022/10/07 01:56:10;;;;;;;5.00;3.55;;;;;;;9.25;57.24;102091.72;5078336;28;20024;-31
2022/10/07 01:58:58;;;;;;;5.93;3.38;;;;;;;9.23;57.42;102085.50;5085444;28;20051;-31
2022/10/07 02:01:38;;;;;;;6.07;3.35;;;;;;;9.18;57.42;102079.28;5091358;28;20072;-31
2022/10/07 02:04:32;;;;;;;5.40;3.10;;;;;;;9.16;57.56;102078.34;5095827;28;20031;-31
2022/10/07 02:07:22;;;;;;;5.72;3.53;;;;;;;9.11;57.50;102068.63;5085907;28;20443;-31
2022/10/07 02:09:49;;;;;;;5.85;3.45;;;;;;;9.10;57.61;102073.84;5096606;28;20485;-30
2022/10/07 02:12:20;;;;;;;4.30;3.33;;;;;;;9.09;57.42;102066.81;5109225;28;20028;-31
2022/10/07 02:14:56;;;;;;;7.15;3.40;;;;;;;9.07;57.39;102055.41;5106952;28;20019;-32
2022/10/07 02:17:23;;;;;;;6.80;3.42;;;;;;;9.04;57.75;102053.56;5088127;28;20443;-31
2022/10/07 02:19:52;;;;;;;5.65;3.15;;;;;;;9.03;57.65;102051.78;5108309;28;20051;-31
2022/10/07 02:22:18;;;;;;;5.45;3.40;;;;;;;9.01;57.76;102050.91;5080977;28;20115;-31
2022/10/07 02:24:46;;;;;;;5.88;3.47;;;;;;;8.98;57.46;102043.81;5102144;28;20028;-31
2022/10/07 02:27:14;;;;;;;5.70;3.20;;;;;;;8.97;57.74;102049.06;5102557;28;20027;-31
2022/10/07 02:29:41;;;;;;;5.32;3.15;;;;;;;8.94;57.92;102043.75;5072691;28;20031;-31
2022/10/07 02:32:12;;;;;;;6.25;3.40;;;;;;;8.91;57.83;102051.56;5102011;28;20024;-31
2022/10/07 02:34:40;;;;;;;6.85;3.35;;;;;;;8.89;57.90;102037.47;5100388;28;20380;-31
2022/10/07 02:37:13;;;;;;;6.72;3.67;;;;;;;8.86;57.96;102048.84;5093719;28;20409;-32
2022/10/07 02:39:39;;;;;;;6.60;3.78;;;;;;;8.83;57.85;102044.41;5086002;28;20088;-31
2022/10/07 02:42:12;;;;;;;7.13;3.67;;;;;;;8.84;58.06;102046.16;5082999;28;20046;-31
2022/10/07 02:45:01;;;;;;;7.55;3.80;;;;;;;8.81;57.96;102038.22;5083783;28;20028;-30
2022/10/07 02:47:32;;;;;;;6.95;3.63;;;;;;;8.79;57.87;102036.41;5087458;28;20508;-32
2022/10/07 02:50:00;;;;;;;8.07;4.30;;;;;;;8.76;57.87;102031.97;5104293;28;20102;-31
2022/10/07 02:52:30;;;;;;;5.78;3.42;;;;;;;8.76;57.70;102025.81;5086855;28;20052;-31
2022/10/07 02:54:59;;;;;;;;;;;;;;;8.73;57.97;102032.81;5085937;28;20482;-31
2022/10/07 02:57:27;;;;;;;7.20;3.67;;;;;;;8.72;57.92;102030.13;5090312;28;19915;-31
2022/10/07 02:59:53;;;;;;;6.10;3.60;;;;;;;8.71;57.93;102028.38;5082250;28;20098;-31
2022/10/07 03:02:24;;;;;;;8.02;4.30;;;;;;;8.69;57.91;102030.06;5084218;28;20031;-31
2022/10/07 03:04:49;;;;;;;9.20;4.32;;;;;;;8.67;57.89;102029.16;5085891;28;20027;-31
2022/10/07 03:07:15;;;;;;;8.15;4.30;;;;;;;8.64;57.98;102021.22;5099915;28;20067;-31
2022/10/07 03:09:41;;;;;;;9.50;4.80;;;;;;;8.62;57.83;102018.53;5064265;28;20030;-31
2022/10/07 03:12:07;;;;;;;9.88;4.95;;;;;;;8.59;58.04;102016.75;5091082;28;20529;-32
2022/10/07 03:14:34;;;;;;;8.80;4.90;;;;;;;8.58;57.80;102017.56;5102491;28;20107;-31
2022/10/07 03:17:00;;;;;;;10.20;5.50;;;;;;;8.57;57.95;102010.56;5108743;28;20363;-31
2022/10/07 03:19:26;;;;;;;9.20;4.95;;;;;;;8.55;57.86;102006.13;5099636;28;20486;-31
2022/10/07 03:21:52;;;;;;;8.40;4.55;;;;;;;8.51;57.97;102010.41;5107601;28;20033;-30
2022/10/07 03:24:18;;;;;;;8.95;4.63;;;;;;;8.50;58.03;102007.75;5083265;28;20445;-31
2022/10/07 03:26:43;;;;;;;7.18;4.13;;;;;;;8.47;57.76;102016.44;5099532;28;20024;-31
2022/10/07 03:29:09;;;;;;;9.03;4.33;;;;;;;8.44;57.91;102005.88;5101743;28;20031;-31
2022/10/07 03:31:35;;;;;;;7.85;4.22;;;;;;;8.43;58.08;102002.34;5104182;28;20643;-30
2022/10/07 03:34:00;;;;;;;6.90;4.07;;;;;;;8.41;57.97;102009.28;5106043;28;20031;-31
2022/10/07 03:36:26;;;;;;;6.38;3.72;;;;;;;8.39;58.28;101994.34;5100137;28;20028;-31
2022/10/07 03:38:51;;;;;;;7.13;4.60;;;;;;;8.38;57.96;101993.47;5105863;28;20155;-31
2022/10/07 03:41:17;;;;;;;6.93;3.92;;;;;;;8.34;57.84;102003.03;5101009;28;20039;-31
2022/10/07 03:43:43;;;;;;;6.55;3.80;;;;;;;8.32;57.83;101988.97;5099311;28;20485;-31
2022/10/07 03:46:08;;;;;;;6.85;3.75;;;;;;;8.31;58.08;102000.31;5105383;28;20038;-31
2022/10/07 03:48:34;;;;;;;6.68;3.70;;;;;;;8.28;58.14;101992.41;5102485;28;20039;-31
2022/10/07 03:50:59;;;;;;;7.90;4.00;;;;;;;8.26;58.36;101988.84;5105202;28;20023;-31
2022/10/07 03:53:28;;;;;;;6.60;4.00;;;;;;;8.26;58.19;101993.19;5079878;28;20024;-31
2022/10/07 03:55:53;;;;;;;7.55;3.83;;;;;;;8.23;58.19;101993.16;5098136;28;20357;-31
2022/10/07 03:58:19;;;;;;;7.07;3.80;;;;;;;8.20;58.13;101986.06;5102769;28;20034;-31
2022/10/07 04:00:44;;;;;;;6.35;3.70;;;;;;;8.18;58.19;101990.41;5103741;28;20576;-32
2022/10/07 04:03:10;;;;;;;7.55;3.80;;;;;;;8.17;58.06;101988.66;5083936;28;20023;-31
2022/10/07 04:05:35;;;;;;;5.88;3.60;;;;;;;8.14;58.20;101980.69;5083210;28;20023;-31
2022/10/07 04:08:03;;;;;;;6.45;3.28;;;;;;;8.12;58.21;101979.75;5095970;28;20027;-31
2022/10/07 04:10:29;;;;;;;5.68;3.53;;;;;;;8.09;58.49;101978.84;5099702;28;20085;-31
2022/10/07 04:12:54;;;;;;;8.52;3.95;;;;;;;8.07;58.25;101977.91;5103559;28;20055;-31
2022/10/07 04:15:20;;;;;;;5.72;3.45;;;;;;;8.05;58.31;101976.13;5100156;28;20031;-31
2022/10/07 04:17:46;;;;;;;5.40;3.40;;;;;;;8.04;58.35;101972.59;5078269;28;20449;-31
2022/10/07 04:20:13;;;;;;;6.22;3.38;;;;;;;8.02;58.50;101970.78;5098475;28;20019;-31
2022/10/07 04:22:39;;;;;;;5.85;3.47;;;;;;;8.00;58.43;101964.63;5109796;28;20053;-30
2022/10/07 04:27:53;;;;;;;6.85;3.50;;;;;;;7.95;58.28;101961.88;5099740;28;20118;-31
2022/10/07 04:30:20;;;;;;;5.38;3.28;;;;;;;7.93;58.64;101963.56;5103316;28;20084;-31
2022/10/07 04:32:47;;;;;;;6.40;3.60;;;;;;;7.91;58.43;101960.91;5110591;28;20027;-29
2022/10/07 04:35:12;;;;;;;6.68;3.67;;;;;;;7.90;58.61;101953.03;5100043;28;20016;-31
2022/10/07 04:37:38;;;;;;;8.60;4.45;;;;;;;7.87;58.46;101963.47;5098062;28;20464;-30
2022/10/07 04:40:03;;;;;;;6.80;4.30;;;;;;;7.85;58.58;101962.53;5099183;28;20036;-31
2022/10/07 04:45:12;;;;;;;7.47;3.85;;;;;;;7.81;58.61;101953.69;5102587;28;20062;-31
2022/10/07 04:47:38;;;;;;;5.80;3.72;;;;;;;7.80;58.64;101958.06;5109205;28;20023;-31
2022/10/07 04:50:04;;;;;;;6.40;3.70;;;;;;;7.78;58.51;101957.16;5098302;28;20413;-31
2022/10/07 04:52:29;;;;;;;9.18;4.65;;;;;;;7.75;58.30;101951.81;5101483;28;20031;-31
2022/10/07 04:54:54;;;;;;;6.38;4.10;;;;;;;7.74;58.57;101950.00;5097848;28;20056;-31
2022/10/07 04:57:20;;;;;;;6.78;3.63;;;;;;;7.73;58.47;101953.50;5084769;28;20019;-31
2022/10/07 04:59:45;;;;;;;5.93;3.58;;;;;;;7.70;58.63;101946.44;5101676;28;20389;-31
2022/10/07 05:02:11;;;;;;;6.18;3.40;;;;;;;7.68;58.18;101942.00;5063100;28;20032;-31
2022/10/07 05:04:37;;;;;;;5.80;3.60;;;;;;;7.67;58.51;101950.75;5102021;28;20024;-31
2022/10/07 05:07:02;;;;;;;7.40;3.90;;;;;;;7.63;58.38;101939.28;5100677;28;20030;-31
2022/10/07 05:09:27;;;;;;;6.35;3.65;;;;;;;7.62;58.71;101944.47;5101095;28;20277;-31
2022/10/07 05:11:56;;;;;;;5.25;3.38;;;;;;;7.58;58.39;101936.53;5103133;28;20053;-31
2022/10/07 05:14:21;;;;;;;6.88;3.65;;;;;;;7.57;58.55;101940.00;5101263;28;20096;-31
2022/10/07 05:16:48;;;;;;;5.15;3.45;;;;;;;7.54;58.67;101929.44;5098634;28;20502;-31
2022/10/07 05:19:13;;;;;;;7.47;3.88;;;;;;;7.53;58.70;101925.03;5100753;28;20039;-32
2022/10/07 05:21:38;;;;;;;6.82;4.05;;;;;;;7.50;58.43;101924.97;5101085;28;20028;-32
2022/10/07 05:24:04;;;;;;;4.90;3.40;;;;;;;7.47;58.82;101927.50;5110455;28;20500;-31
2022/10/07 05:26:29;;;;;;;5.38;3.30;;;;;;;7.46;58.50;101924.88;5096885;28;20027;-32
2022/10/07 05:28:55;;;;;;;5.93;3.13;;;;;;;7.44;58.98;101927.47;5097368;28;20044;-32
2022/10/07 05:31:20;;;;;;;4.77;3.20;;;;;;;7.43;58.95;101920.41;5093254;28;20386;-32
2022/10/07 05:33:48;;;;;;;6.38;3.92;;;;;;;7.40;58.95;101923.00;5106210;28;20273;-32
2022/10/07 05:36:14;;;;;;;4.50;2.90;;;;;;;7.40;58.66;101920.38;5080961;28;20050;-32
2022/10/07 05:38:39;;;;;;;4.40;3.35;;;;;;;7.39;58.77;101915.94;5095207;28;20036;-31
2022/10/07 05:41:06;;;;;;;5.65;3.03;;;;;;;7.36;58.95;101921.13;5093767;28;20024;-31
2022/10/07 05:43:33;;;;;;;4.95;3.25;;;;;;;7.34;59.05;101914.97;5077247;28;20436;-31
2022/10/07 05:46:00;;;;;;;5.47;3.28;;;;;;;7.34;58.59;101912.34;5095309;28;20028;-31
2022/10/07 05:48:27;;;;;;;4.35;2.90;;;;;;;7.32;58.71;101913.19;5087931;28;20023;-32
2022/10/07 05:50:53;;;;;;;5.70;3.03;;;;;;;7.29;58.83;101913.09;5115402;28;20028;-31
2022/10/07 05:53:19;;;;;;;5.78;3.22;;;;;;;7.26;58.74;101918.28;5107319;28;20389;-31
2022/10/07 05:55:44;;;;;;;5.60;3.03;;;;;;;7.26;58.90;101913.03;5110951;28;20473;-31
2022/10/07 05:58:10;;;;;;;5.75;3.00;;;;;;;7.25;59.03;101920.84;5096924;28;20102;-31
2022/10/07 06:00:40;;;;;;;6.20;3.00;;;;;;;7.23;58.90;101920.81;5113742;28;20023;-32
2022/10/07 06:03:06;;;;;;;7.47;3.33;;;;;;;7.22;59.25;101921.69;5115456;28;20076;-32
2022/10/07 06:05:32;;;;;;;4.43;2.67;;;;;;;7.21;59.16;101913.75;5113982;28;20408;-31
2022/10/07 06:07:57;;;;;;;6.30;3.20;;;;;;;7.21;59.09;101919.91;5098024;28;20103;-31
2022/10/07 06:13:07;;;;;;;4.63;3.03;;;;;;;7.17;59.72;101913.69;5115499;28;20112;-30
2022/10/07 06:15:33;;;;;;;4.97;3.10;;;;;;;7.18;59.17;101914.56;5094998;28;20027;-29
2022/10/07 06:17:59;;;;;;;5.53;3.20;;;;;;;7.16;59.58;101917.16;5106993;28;20019;-29
2022/10/07 06:20:24;;;;;;;6.20;2.95;;;;;;;7.17;59.52;101911.06;5078534;28;20089;-30
2022/10/07 06:22:52;;;;;;;4.50;2.67;;;;;;;7.16;59.50;101905.75;5101387;28;20141;-29
2022/10/07 06:25:18;;;;;;;5.50;3.25;;;;;;;7.17;59.93;101907.56;5106244;28;20322;-30
2022/10/07 06:27:43;;;;;;;5.57;3.30;;;;;;;7.15;59.98;101901.38;5093892;28;20027;-29
2022/10/07 06:30:09;;;;;;;5.57;3.40;;;;;;;7.16;59.91;101900.53;5096796;28;20030;-29
2022/10/07 06:32:34;;;;;;;5.25;3.25;;;;;;;7.16;60.12;101906.66;5101440;28;20035;-28
2022/10/07 06:34:59;;;;;;;5.43;3.22;;;;;;;7.17;60.34;101897.94;5101206;28;20027;-30
2022/10/07 06:37:25;;;;;;;5.85;3.42;;;;;;;7.17;59.99;101900.56;5113646;28;20031;-29
2022/10/07 06:39:50;;;;;;;6.07;3.55;;;;;;;7.21;60.35;101903.25;5098742;28;20101;-29
2022/10/07 06:42:16;;;;;;;5.78;3.70;;;;;;;7.22;60.94;101905.03;5102204;28;20030;-30
2022/10/07 06:44:41;;;;;;;6.88;3.13;;;;;;;7.24;61.00;101901.59;5114277;28;20027;-29
2022/10/07 06:47:07;;;;;;;6.03;3.60;;;;;;;7.25;61.57;101895.50;5110273;28;20113;-30
2022/10/07 06:49:32;;;;;;;5.80;3.47;;;;;;;7.29;62.18;101901.72;5099203;28;20027;-30
2022/10/07 06:51:58;;;;;;;5.57;3.30;;;;;;;7.31;62.41;101898.25;5111780;28;20435;-29
2022/10/07 06:54:24;;;;;;;6.82;3.30;;;;;;;7.30;63.12;101888.63;5113245;28;20015;-30
2022/10/07 06:56:49;;;;;;;6.60;3.80;;;;;;;7.32;63.44;101894.81;5099242;28;20028;-29
2022/10/07 06:59:15;;;;;;;6.22;3.55;;;;;;;7.34;63.05;101893.97;5094042;28;20111;-29
2022/10/07 07:01:40;;;;;;;6.45;3.50;;;;;;;7.36;64.00;101903.63;5101432;28;20107;-29
2022/10/07 07:04:05;;;;;;;7.25;3.80;;;;;;;7.38;63.02;101895.81;5101754;28;20384;-29
2022/10/07 07:06:35;;;;;;;7.30;3.63;;;;;;;7.41;64.12;101890.63;5093793;28;20043;-29
2022/10/07 07:09:04;;;;;;;6.65;3.70;;;;;;;7.41;63.30;101890.63;5093140;28;20024;-29
2022/10/07 07:11:36;;;;;;;7.30;3.67;;;;;;;7.44;63.06;101893.34;5093812;28;20052;-29
2022/10/07 07:14:03;;;;;;;5.57;3.40;;;;;;;7.48;62.95;101891.66;5110008;28;20045;-29
2022/10/07 07:16:30;;;;;;;7.82;4.07;;;;;;;7.51;62.97;101887.38;5105343;28;20028;-30
2022/10/07 07:19:03;;;;;;;5.82;3.80;;;;;;;7.53;62.49;101890.91;5102454;28;20371;-30
2022/10/07 07:21:29;;;;;;;6.22;3.25;;;;;;;7.58;62.12;101886.63;5091624;28;20020;-30
2022/10/07 07:23:56;;;;;;;6.63;3.30;;;;;;;7.61;62.24;101887.56;5093224;28;20034;-30
2022/10/07 07:26:22;;;;;;;5.68;3.03;;;;;;;7.65;61.47;101882.44;5098264;28;20051;-30
2022/10/07 07:28:57;;;;;;;6.22;3.63;;;;;;;7.69;61.49;101881.66;5100983;28;20451;-29
2022/10/07 07:31:22;;;;;;;6.78;3.33;;;;;;;7.74;61.37;101880.88;5101460;28;20494;-29
2022/10/07 07:33:51;;;;;;;6.20;3.30;;;;;;;7.79;61.33;101884.47;5101450;28;20031;-28
2022/10/07 07:36:20;;;;;;;5.80;3.38;;;;;;;7.85;61.74;101873.22;5089207;28;20052;-30
2022/10/07 07:38:57;;;;;;;6.88;3.67;;;;;;;7.91;61.66;101881.22;5104884;28;20120;-29
2022/10/07 07:41:25;;;;;;;7.00;3.55;;;;;;;7.98;61.53;101866.47;5094012;28;20023;-30
2022/10/07 07:43:52;;;;;;;7.30;3.65;;;;;;;8.03;61.52;101865.72;5099505;28;20074;-29
2022/10/07 07:46:19;;;;;;;7.45;3.70;;;;;;;8.11;61.42;101865.00;5101422;28;20027;-30
2022/10/07 07:48:45;;;;;;;6.53;3.83;;;;;;;8.18;61.56;101870.41;5092664;28;20032;-30
2022/10/07 07:51:12;;;;;;;5.07;3.25;;;;;;;8.27;61.41;101872.31;5095982;28;20020;-29
2022/10/07 07:53:38;;;;;;;6.35;3.63;;;;;;;8.36;61.32;101873.38;5097120;28;20019;-29
2022/10/07 07:56:04;;;;;;;5.47;3.35;;;;;;;8.42;61.16;101869.13;5101709;28;20378;-30
2022/10/07 07:58:30;;;;;;;6.72;3.50;;;;;;;8.52;61.09;101874.53;5092537;28;20024;-30
2022/10/07 08:01:00;;;;;;;6.93;3.10;;;;;;;8.60;60.89;101867.72;5094816;28;20552;-30
2022/10/07 08:03:26;;;;;;;8.30;3.90;;;;;;;8.68;60.74;101865.22;5101680;28;20032;-30
2022/10/07 08:05:52;;;;;;;6.85;3.63;;;;;;;8.75;60.60;101861.84;5072540;28;20072;-29
2022/10/07 08:08:18;;;;;;;6.05;3.42;;;;;;;8.83;60.80;101865.50;5094842;28;20036;-30
2022/10/07 08:10:43;;;;;;;8.43;4.45;;;;;;;8.90;60.81;101863.00;5097378;28;20015;-30
2022/10/07 08:13:09;;;;;;;6.15;3.67;;;;;;;8.98;60.91;101859.59;5100437;28;20547;-30
2022/10/07 08:15:35;;;;;;;6.85;3.45;;;;;;;9.07;61.00;101868.53;5104168;28;20094;-29
2022/10/07 08:18:02;;;;;;;6.22;3.33;;;;;;;9.15;61.04;101868.63;5102352;28;20494;-30
2022/10/07 08:20:27;;;;;;;7.55;3.72;;;;;;;9.23;61.23;101867.00;5101504;28;20035;-30
2022/10/07 08:22:53;;;;;;;7.47;3.30;;;;;;;9.29;61.01;101859.22;5102616;28;20027;-29
2022/10/07 08:25:18;;;;;;;6.93;3.80;;;;;;;9.37;61.12;101857.59;5083187;28;20517;-30
2022/10/07 08:27:44;;;;;;;7.80;3.47;;;;;;;9.43;61.15;101848.00;5105356;28;20027;-30
2022/10/07 08:30:10;;;;;;;5.32;3.70;;;;;;;9.51;61.37;101849.00;5082949;28;20016;-30
2022/10/07 08:32:35;;;;;;;7.35;3.58;;;;;;;9.58;61.08;101842.97;5098437;28;20024;-29
2022/10/07 08:35:01;;;;;;;7.03;3.80;;;;;;;9.67;61.17;101843.97;5080516;28;20033;-29
2022/10/07 08:37:26;;;;;;;7.20;3.70;;;;;;;9.73;61.27;101838.75;5103065;28;20054;-30
2022/10/07 08:39:51;;;;;;;7.60;3.75;;;;;;;9.80;61.34;101832.69;5103563;28;20413;-30
2022/10/07 08:42:29;;;;;;;8.95;4.32;;;;;;;9.88;61.32;101838.94;5092008;28;20063;-30
2022/10/07 08:44:55;;;;;;;7.30;3.50;;;;;;;9.96;61.41;101832.88;5102602;28;20028;-29
2022/10/07 08:47:34;;;;;;;6.32;3.28;;;;;;;10.04;61.99;101828.59;5079901;28;20061;-30
2022/10/07 08:50:18;;;;;;;9.45;3.50;;;;;;;10.13;62.07;101823.44;5097563;28;20110;-30
2022/10/07 08:52:52;;;;;;;6.60;3.13;;;;;;;10.22;62.00;101834.94;5102411;28;20028;-30
2022/10/07 08:55:38;;;;;;;10.73;3.15;;;;;;;10.32;62.73;101826.28;5066111;28;20631;-30
2022/10/07 08:58:25;;;;;;;7.32;3.28;;;;;;;10.39;62.47;101817.56;5097226;28;20171;-29
2022/10/07 09:01:24;;;;;;;7.05;2.97;;;;;;;10.51;62.96;101824.72;5096437;28;20483;-29
2022/10/07 09:04:05;;;;;;;10.02;2.97;;;;;;;10.60;62.78;101818.66;5082060;28;20028;-29
2022/10/07 09:06:37;;;;;;;8.77;3.15;;;;;;;10.68;63.43;101813.47;5091494;28;20081;-30
2022/10/07 09:09:11;;;;;;;10.00;3.60;;;;;;;10.80;63.97;101810.03;5085168;28;20382;-29
2022/10/07 09:11:39;;;;;;;5.88;2.60;;;;;;;10.87;63.85;101811.84;5104521;28;20046;-29
2022/10/07 09:14:38;;;;;;;5.95;2.70;;;;;;;10.98;64.05;101803.13;5089569;28;20328;-30
2022/10/07 09:17:11;;;;;;;5.53;2.90;;;;;;;11.05;63.55;101802.31;5112824;28;20035;-29
2022/10/07 09:19:41;;;;;;;6.95;2.50;;;;;;;11.16;64.62;101798.00;5091200;28;20029;-29
2022/10/07 09:22:43;;;;;;;6.38;2.72;;;;;;;11.28;64.97;101796.28;5087991;28;20023;-29
2022/10/07 09:25:12;;;;;;;6.85;2.90;;;;;;;11.38;65.07;101782.28;5015809;28;20041;-29
2022/10/07 09:27:38;;;;;;;6.38;2.80;;;;;;;11.48;65.21;101785.84;5089071;28;20036;-29
2022/10/07 09:30:05;;;;;;;6.95;2.80;;;;;;;11.58;64.48;101777.94;5092166;28;20359;-30
2022/10/07 09:32:31;;;;;;;7.35;3.00;;;;;;;11.67;64.25;101778.88;5101041;28;20027;-30
2022/10/07 09:34:56;;;;;;;6.75;3.00;;;;;;;11.78;64.83;101783.31;5094913;28;20454;-29
2022/10/07 09:37:28;;;;;;;5.85;2.45;;;;;;;11.92;65.28;101780.72;5115470;28;20030;-29
2022/10/07 09:39:58;;;;;;;9.30;2.60;;;;;;;11.97;64.03;101776.31;5097650;28;20030;-30
2022/10/07 09:42:29;;;;;;;6.05;2.28;;;;;;;12.06;63.97;101767.56;5094653;28;20057;-30
2022/10/07 09:44:58;;;;;;;5.30;2.20;;;;;;;12.16;64.04;101760.53;5113918;28;20485;-29
2022/10/07 09:47:27;;;;;;;5.88;2.13;;;;;;;12.27;64.75;101764.06;5092170;28;20032;-30
2022/10/07 09:49:58;;;;;;;4.55;2.30;;;;;;;12.38;64.29;101761.47;5105476;28;20020;-30
2022/10/07 09:52:26;;;;;;;4.88;2.08;;;;;;;12.48;64.30;101756.16;5108414;28;20015;-30
2022/10/07 09:54:54;;;;;;;6.78;2.28;;;;;;;12.56;64.08;101755.28;5102327;28;20023;-30
2022/10/07 09:57:31;;;;;;;5.68;1.95;;;;;;;12.67;63.72;101747.34;5108186;28;20047;-28
2022/10/07 10:00:29;;;;;;;7.13;2.08;;;;;;;12.83;63.82;101747.31;5107290;28;20127;-30
2022/10/07 10:03:12;;;;;;;6.95;1.83;;;;;;;12.94;64.10;101737.59;5059194;28;20410;-30
2022/10/07 10:05:59;;;;;;;4.82;2.00;;;;;;;13.05;63.33;101736.69;5086750;28;20035;-30
2022/10/07 10:08:29;;;;;;;5.50;1.83;;;;;;;13.14;63.30;101726.06;5104238;28;20513;-30
2022/10/07 10:10:55;;;;;;;4.65;2.10;;;;;;;13.27;63.43;101731.34;5101956;28;20039;-30
2022/10/07 10:13:39;;;;;;;5.00;1.70;;;;;;;13.36;62.76;101728.66;5099375;28;20036;-30
2022/10/07 10:16:27;;;;;;;4.78;1.83;;;;;;;13.46;62.78;101727.72;5100653;28;20035;-29
2022/10/07 10:19:01;;;;;;;4.32;1.63;;;;;;;13.64;62.85;101719.72;5098886;28;20034;-30
2022/10/07 10:21:28;;;;;;;4.28;1.50;;;;;;;13.72;62.44;101713.50;5103128;28;20024;-30
2022/10/07 10:23:56;;;;;;;3.80;1.60;;;;;;;13.80;62.24;101705.50;5095368;28;20249;-30
2022/10/07 10:26:43;;;;;;;4.78;1.60;;;;;;;13.92;61.75;101699.25;5108261;28;20020;-28
2022/10/07 10:29:16;;;;;;;4.15;1.60;;;;;;;14.06;61.62;101700.91;5101062;28;20051;-31
2022/10/07 10:31:58;;;;;;;4.35;1.60;;;;;;;14.13;61.03;101697.31;5113005;28;20027;-28
2022/10/07 10:34:27;;;;;;;6.18;1.67;;;;;;;14.24;61.10;101687.50;5110046;28;20059;-29
2022/10/07 10:36:59;;;;;;;4.40;1.33;;;;;;;14.35;60.98;101681.22;5104362;28;20073;-26
2022/10/07 10:39:38;;;;;;;4.30;1.40;;;;;;;14.44;60.70;101675.81;5104916;28;20047;-27
2022/10/07 10:42:10;;;;;;;5.13;1.80;;;;;;;14.53;60.98;101674.88;5067661;28;20023;-27
2022/10/07 10:44:48;;;;;;;2.88;1.50;;;;;;;14.64;60.76;101666.78;5103635;28;20079;-26
2022/10/07 10:47:41;;;;;;;4.15;1.42;;;;;;;14.76;60.53;101660.47;5106929;28;20482;-27
2022/10/07 10:50:28;;;;;;;4.75;1.65;;;;;;;14.86;60.22;101646.25;5104453;28;20035;-26
2022/10/07 10:52:54;;;;;;;4.47;1.40;;;;;;;14.91;60.30;101638.22;5105229;28;20028;-27
2022/10/07 10:55:23;;;;;;;3.78;1.50;;;;;;;15.05;59.83;101638.06;5101604;28;20019;-26
2022/10/07 10:58:17;;;;;;;4.90;1.65;;;;;;;15.17;59.67;101639.66;5104468;28;20077;-26
2022/10/07 11:01:01;;;;;;;6.93;2.03;;;;;;;15.21;59.46;101630.75;5096361;28;20353;-27
2022/10/07 11:03:31;;;;;;;2.90;1.40;;;;;;;15.37;59.43;101625.22;5110356;28;20512;-27
2022/10/07 11:06:00;;;;;;;2.83;1.40;;;;;;;15.44;59.35;101626.03;5096749;28;20036;-27
2022/10/07 11:08:31;;;;;;;5.72;1.45;;;;;;;15.55;58.95;101617.88;5080478;28;20072;-26
2022/10/07 11:11:05;;;;;;;4.20;1.50;;;;;;;15.64;58.58;101612.44;5110344;28;20102;-27
2022/10/07 11:13:51;;;;;;;4.38;1.40;;;;;;;15.71;58.19;101608.75;5083326;28;20028;-26
2022/10/07 11:16:37;;;;;;;3.78;1.83;;;;;;;15.83;57.88;101607.69;5102748;28;20036;-26
2022/10/07 11:19:03;;;;;;;8.48;1.30;;;;;;;15.89;58.19;101596.09;5101517;28;20513;-26
2022/10/07 11:21:34;;;;;;;3.58;1.45;;;;;;;15.96;58.00;101584.47;5101253;28;20028;-27
2022/10/07 11:24:05;;;;;;;3.90;1.40;;;;;;;16.06;57.74;101593.16;5103804;28;20019;-26
2022/10/07 11:26:41;;;;;;;4.90;1.40;;;;;;;16.14;57.05;101579.75;5099789;28;20390;-27
2022/10/07 11:29:19;;;;;;;4.72;1.30;;;;;;;16.22;57.19;101561.84;5080617;28;20031;-27
2022/10/07 11:31:51;;;;;;;3.22;1.30;;;;;;;16.28;57.19;101559.03;5106853;28;20031;-27
2022/10/07 11:34:22;;;;;;;2.80;1.35;;;;;;;16.39;56.75;101558.88;5101109;28;20027;-27
2022/10/07 11:36:54;;;;;;;2.88;1.10;;;;;;;16.50;56.26;101560.41;5100670;28;20035;-27
2022/10/07 11:39:20;;;;;;;4.63;1.30;;;;;;;16.57;56.02;101558.53;5103467;28;20028;-27
2022/10/07 11:42:02;;;;;;;3.60;1.00;;;;;;;16.64;55.64;101552.16;5078972;28;20032;-27
2022/10/07 11:44:30;;;;;;;;;;;;;;;16.74;55.46;101548.38;5085432;28;20027;-27
2022/10/07 11:47:10;;;;;;;3.63;1.67;;;;;;;16.85;54.34;101544.63;5079195;28;19916;-27
2022/10/07 11:49:42;;;;;;;3.60;1.02;;;;;;;16.95;54.36;101546.19;5074519;28;20023;-27
2022/10/07 11:52:23;;;;;;;4.18;1.20;;;;;;;17.00;54.98;101543.41;5080648;28;20482;-27